createdAt,value
2023-11-07T00:01:28.819Z,1.83
2023-11-07T00:03:56.446Z,1.27
2023-11-07T00:06:23.967Z,1.20
2023-11-07T00:08:51.908Z,1.50
2023-11-07T00:11:18.819Z,1.53
2023-11-07T00:13:45.644Z,4.10
2023-11-07T00:16:12.551Z,2.03
2023-11-07T00:18:41.100Z,2.00
2023-11-07T00:21:08.256Z,1.57
2023-11-07T00:23:35.378Z,2.17
2023-11-07T00:26:03.105Z,1.77
2023-11-07T00:28:29.780Z,1.33
2023-11-07T00:30:56.469Z,1.30
2023-11-07T00:33:23.271Z,2.10
2023-11-07T00:35:50.021Z,1.30
2023-11-07T00:38:16.726Z,1.83
2023-11-07T00:40:43.861Z,1.80
2023-11-07T00:43:10.606Z,1.87
2023-11-07T00:45:37.641Z,1.47
2023-11-07T00:48:04.751Z,2.47
2023-11-07T00:50:31.703Z,1.13
2023-11-07T00:52:58.593Z,2.03
2023-11-07T00:55:25.352Z,3.63
2023-11-07T00:57:52.029Z,1.37
2023-11-07T01:00:18.788Z,1.30
2023-11-07T01:02:46.286Z,1.60
2023-11-07T01:05:13.439Z,2.53
2023-11-07T01:07:40.805Z,2.37
2023-11-07T01:10:08.058Z,1.20
2023-11-07T01:12:34.788Z,2.20
2023-11-07T01:15:04.326Z,1.77
2023-11-07T01:17:31.412Z,1.47
2023-11-07T01:19:58.212Z,1.97
2023-11-07T01:22:26.345Z,2.20
2023-11-07T01:24:53.179Z,1.33
2023-11-07T01:27:19.993Z,1.40
2023-11-07T01:29:46.772Z,1.70
2023-11-07T01:32:13.541Z,2.07
2023-11-07T01:34:40.297Z,2.97
2023-11-07T01:37:07.123Z,1.67
2023-11-07T01:39:34.009Z,1.50
2023-11-07T01:42:00.728Z,2.10
2023-11-07T01:44:30.855Z,1.97
2023-11-07T01:46:58.036Z,1.73
2023-11-07T01:49:25.429Z,2.33
2023-11-07T01:51:55.049Z,3.13
2023-11-07T01:54:22.828Z,2.17
2023-11-07T01:56:50.790Z,1.63
2023-11-07T01:59:17.628Z,2.53
2023-11-07T02:01:44.848Z,2.37
2023-11-07T02:04:11.758Z,2.63
2023-11-07T02:06:39.190Z,1.83
2023-11-07T02:09:09.201Z,2.93
2023-11-07T02:11:36.663Z,2.63
2023-11-07T02:14:03.455Z,1.53
2023-11-07T02:16:34.900Z,2.13
2023-11-07T02:19:01.631Z,3.43
2023-11-07T02:21:29.687Z,1.57
2023-11-07T02:23:56.384Z,1.83
2023-11-07T02:26:23.667Z,2.17
2023-11-07T02:28:51.420Z,1.90
2023-11-07T02:31:18.652Z,1.70
2023-11-07T02:33:45.558Z,2.60
2023-11-07T02:36:12.387Z,1.73
2023-11-07T02:38:39.471Z,1.50
2023-11-07T02:41:06.261Z,2.63
2023-11-07T02:43:33.067Z,1.50
2023-11-07T02:45:59.800Z,2.60
2023-11-07T02:48:26.569Z,2.27
2023-11-07T02:50:53.703Z,2.63
2023-11-07T02:53:20.459Z,1.63
2023-11-07T02:55:47.423Z,1.63
2023-11-07T02:58:16.081Z,3.50
2023-11-07T03:00:45.002Z,3.67
2023-11-07T03:03:11.877Z,2.10
2023-11-07T03:05:38.809Z,1.63
2023-11-07T03:08:07.751Z,1.53
2023-11-07T03:10:34.525Z,4.00
2023-11-07T03:13:02.572Z,1.20
2023-11-07T03:15:29.299Z,1.70
2023-11-07T03:17:56.097Z,1.53
2023-11-07T03:20:23.207Z,1.30
2023-11-07T03:22:50.036Z,2.60
2023-11-07T03:25:17.870Z,2.07
2023-11-07T03:27:44.648Z,2.40
2023-11-07T03:30:11.684Z,1.40
2023-11-07T03:32:38.629Z,2.37
2023-11-07T03:35:05.874Z,3.27
2023-11-07T03:37:32.627Z,1.90
2023-11-07T03:39:59.354Z,1.37
2023-11-07T03:42:26.043Z,2.57
2023-11-07T03:44:52.793Z,1.73
2023-11-07T03:47:19.584Z,2.27
2023-11-07T03:49:46.288Z,1.87
2023-11-07T03:52:13.005Z,2.37
2023-11-07T03:54:39.698Z,1.53
2023-11-07T03:57:06.502Z,1.67
2023-11-07T03:59:33.278Z,1.77
2023-11-07T04:02:01.729Z,2.17
2023-11-07T04:04:28.551Z,1.00
2023-11-07T04:06:55.309Z,1.93
2023-11-07T04:09:22.314Z,1.80
2023-11-07T04:11:48.977Z,1.63
2023-11-07T04:14:18.784Z,3.23
2023-11-07T04:16:48.202Z,2.03
2023-11-07T04:19:15.121Z,2.03
2023-11-07T04:21:41.942Z,1.43
2023-11-07T04:24:09.458Z,2.10
2023-11-07T04:26:36.247Z,1.67
2023-11-07T04:29:05.147Z,1.83
2023-11-07T04:31:31.980Z,2.10
2023-11-07T04:33:58.734Z,1.87
2023-11-07T04:36:25.870Z,1.40
2023-11-07T04:38:52.649Z,3.77
2023-11-07T04:41:19.402Z,2.20
2023-11-07T04:43:46.162Z,2.20
2023-11-07T04:46:14.223Z,2.70
2023-11-07T04:48:41.227Z,1.87
2023-11-07T04:51:08.166Z,2.23
2023-11-07T04:53:35.183Z,4.00
2023-11-07T04:56:01.993Z,2.40
2023-11-07T04:58:28.673Z,2.97
2023-11-07T05:00:55.372Z,1.67
2023-11-07T05:03:33.189Z,2.20
2023-11-07T05:06:06.222Z,1.50
2023-11-07T05:08:33.016Z,1.67
2023-11-07T05:10:59.789Z,2.40
2023-11-07T05:13:28.850Z,1.30
2023-11-07T05:15:55.624Z,4.20
2023-11-07T05:18:22.536Z,2.10
2023-11-07T05:20:51.085Z,1.83
2023-11-07T05:23:17.857Z,3.53
2023-11-07T05:25:44.613Z,1.73
2023-11-07T05:28:11.797Z,1.37
2023-11-07T05:30:38.871Z,2.50
2023-11-07T05:33:06.623Z,3.00
2023-11-07T05:35:33.417Z,4.17
2023-11-07T05:38:00.254Z,3.37
2023-11-07T05:40:27.071Z,1.37
2023-11-07T05:42:54.051Z,2.17
2023-11-07T05:45:21.247Z,4.80
2023-11-07T05:47:48.341Z,4.00
2023-11-07T05:50:15.817Z,3.30
2023-11-07T05:52:42.562Z,2.10
2023-11-07T05:55:11.405Z,2.93
2023-11-07T05:57:40.012Z,4.10
2023-11-07T06:00:09.292Z,1.87
2023-11-07T06:02:39.210Z,3.43
2023-11-07T06:05:07.793Z,3.27
2023-11-07T06:07:34.885Z,2.37
2023-11-07T06:10:08.625Z,3.70
2023-11-07T06:12:35.437Z,5.20
2023-11-07T06:15:02.770Z,3.50
2023-11-07T06:17:29.851Z,2.10
2023-11-07T06:19:56.741Z,2.70
2023-11-07T06:22:23.469Z,4.77
2023-11-07T06:24:50.233Z,3.57
2023-11-07T06:27:17.072Z,2.37
2023-11-07T06:29:44.439Z,3.00
2023-11-07T06:32:11.360Z,3.10
2023-11-07T06:34:38.433Z,2.10
2023-11-07T06:37:05.238Z,3.13
2023-11-07T06:39:32.025Z,2.83
2023-11-07T06:41:59.233Z,2.63
2023-11-07T06:44:27.023Z,2.80
2023-11-07T06:46:54.555Z,5.87
2023-11-07T06:49:21.497Z,3.43
2023-11-07T06:51:48.620Z,5.80
2023-11-07T06:54:15.452Z,4.37
2023-11-07T06:56:42.190Z,3.27
2023-11-07T06:59:09.788Z,5.00
2023-11-07T07:01:36.584Z,5.50
2023-11-07T07:04:04.368Z,3.93
2023-11-07T07:06:33.139Z,2.73
2023-11-07T07:09:00.087Z,6.47
2023-11-07T07:11:26.807Z,3.03
2023-11-07T07:13:55.375Z,3.60
2023-11-07T07:16:24.955Z,2.97
2023-11-07T07:18:51.910Z,3.10
2023-11-07T07:21:18.768Z,2.30
2023-11-07T07:23:48.111Z,2.63
2023-11-07T07:26:15.384Z,1.60
2023-11-07T07:28:42.144Z,2.83
2023-11-07T07:31:09.026Z,2.37
2023-11-07T07:33:36.460Z,3.17
2023-11-07T07:36:11.274Z,2.90
2023-11-07T07:38:38.162Z,1.87
2023-11-07T07:41:06.264Z,2.17
2023-11-07T07:43:32.919Z,2.60
2023-11-07T07:45:59.723Z,1.93
2023-11-07T07:48:28.330Z,2.60
2023-11-07T07:50:55.215Z,2.03
2023-11-07T07:53:22.236Z,2.00
2023-11-07T07:55:51.194Z,2.73
2023-11-07T07:58:20.250Z,2.10
2023-11-07T08:00:50.452Z,2.53
2023-11-07T08:03:18.192Z,2.27
2023-11-07T08:05:45.454Z,2.70
2023-11-07T08:08:13.231Z,3.97
2023-11-07T08:10:40.647Z,1.70
2023-11-07T08:13:08.010Z,1.70
2023-11-07T08:15:36.240Z,1.87
2023-11-07T08:18:08.048Z,4.00
2023-11-07T08:20:35.988Z,1.77
2023-11-07T08:23:02.764Z,3.13
2023-11-07T08:25:29.589Z,3.23
2023-11-07T08:27:56.398Z,2.20
2023-11-07T08:30:26.720Z,2.23
2023-11-07T08:32:54.242Z,4.20
2023-11-07T08:35:21.579Z,2.00
2023-11-07T08:37:51.182Z,2.70
2023-11-07T08:40:21.959Z,1.90
2023-11-07T08:42:51.127Z,2.53
2023-11-07T08:45:20.160Z,1.30
2023-11-07T08:47:47.941Z,5.40
2023-11-07T08:50:15.143Z,1.80
2023-11-07T08:52:42.204Z,2.50
2023-11-07T08:55:09.620Z,1.50
2023-11-07T08:57:56.848Z,1.60
2023-11-07T09:00:24.425Z,1.87
2023-11-07T09:02:52.354Z,1.57
2023-11-07T09:05:19.424Z,2.90
2023-11-07T09:07:46.706Z,1.23
2023-11-07T09:10:13.622Z,2.50
2023-11-07T09:12:42.693Z,1.30
2023-11-07T09:15:12.020Z,1.97
2023-11-07T09:17:43.042Z,1.13
2023-11-07T09:20:15.212Z,1.93
2023-11-07T09:22:42.299Z,1.23
2023-11-07T09:25:10.227Z,1.17
2023-11-07T09:27:38.143Z,2.60
2023-11-07T09:30:09.883Z,1.37
2023-11-07T09:32:38.040Z,1.37
2023-11-07T09:35:08.153Z,1.37
2023-11-07T09:37:41.318Z,1.03
2023-11-07T09:40:10.546Z,1.10
2023-11-07T09:42:38.734Z,1.73
2023-11-07T09:45:10.571Z,1.10
2023-11-07T09:47:37.664Z,3.77
2023-11-07T09:50:08.828Z,0.70
2023-11-07T09:52:36.516Z,1.77
2023-11-07T09:55:10.479Z,1.60
2023-11-07T09:57:42.003Z,1.20
2023-11-07T10:00:12.325Z,2.30
2023-11-07T10:02:41.352Z,1.57
2023-11-07T10:05:09.277Z,1.07
2023-11-07T10:07:36.145Z,1.20
2023-11-07T10:10:06.789Z,1.63
2023-11-07T10:12:39.979Z,2.63
2023-11-07T10:15:19.599Z,3.27
2023-11-07T10:18:06.092Z,1.77
2023-11-07T10:20:35.081Z,1.30
2023-11-07T10:23:02.137Z,2.20
2023-11-07T10:25:30.210Z,1.23
2023-11-07T10:28:01.501Z,1.60
2023-11-07T10:30:35.531Z,1.57
2023-11-07T10:33:05.621Z,1.17
2023-11-07T10:35:33.099Z,0.80
2023-11-07T10:37:59.948Z,2.17
2023-11-07T10:40:27.563Z,1.00
2023-11-07T10:42:54.307Z,1.50
2023-11-07T10:45:23.006Z,0.70
2023-11-07T10:47:50.114Z,1.50
2023-11-07T10:50:18.447Z,0.80
2023-11-07T10:52:47.311Z,1.33
2023-11-07T10:55:14.431Z,2.33
2023-11-07T10:57:42.606Z,1.30
2023-11-07T11:00:19.300Z,1.40
2023-11-07T11:02:49.608Z,1.30
2023-11-07T11:05:17.214Z,1.53
2023-11-07T11:07:49.485Z,1.63
2023-11-07T11:10:16.675Z,1.57
2023-11-07T11:12:44.126Z,0.80
2023-11-07T11:15:10.945Z,0.70
2023-11-07T11:17:40.948Z,1.43
2023-11-07T11:20:11.227Z,1.83
2023-11-07T11:22:47.312Z,1.17
2023-11-07T11:25:20.137Z,1.60
2023-11-07T11:27:49.185Z,0.80
2023-11-07T11:30:15.938Z,1.40
2023-11-07T11:32:45.110Z,0.80
2023-11-07T11:35:18.567Z,2.87
2023-11-07T11:38:06.112Z,1.53
2023-11-07T11:40:50.826Z,1.23
2023-11-07T11:43:18.376Z,2.67
2023-11-07T11:45:47.325Z,1.20
2023-11-07T11:48:14.508Z,1.23
2023-11-07T11:50:41.379Z,1.30
2023-11-07T11:53:10.187Z,3.73
2023-11-07T11:55:57.178Z,1.87
2023-11-07T11:58:27.032Z,1.03
2023-11-07T12:00:54.336Z,0.90
2023-11-07T12:03:21.806Z,1.57
2023-11-07T12:06:05.122Z,1.13
2023-11-07T12:08:43.751Z,1.40
2023-11-07T12:11:11.224Z,2.47
2023-11-07T12:13:38.357Z,1.90
2023-11-07T12:16:12.034Z,0.90
2023-11-07T12:18:39.953Z,0.60
2023-11-07T12:21:06.940Z,0.50
2023-11-07T12:23:33.671Z,1.13
2023-11-07T12:26:00.420Z,0.80
2023-11-07T12:28:27.156Z,0.70
2023-11-07T12:30:54.925Z,0.60
2023-11-07T12:33:22.015Z,1.23
2023-11-07T12:35:52.210Z,0.70
2023-11-07T12:38:20.903Z,0.70
2023-11-07T12:40:48.232Z,0.80
2023-11-07T12:43:16.467Z,1.73
2023-11-07T12:45:45.887Z,1.10
2023-11-07T12:48:14.719Z,1.37
2023-11-07T12:50:46.165Z,0.53
2023-11-07T12:53:14.575Z,1.83
2023-11-07T12:55:49.903Z,2.23
2023-11-07T12:58:25.385Z,1.27
2023-11-07T13:01:02.076Z,1.23
2023-11-07T13:03:30.272Z,1.43
2023-11-07T13:06:01.079Z,1.03
2023-11-07T13:08:38.273Z,1.20
2023-11-07T13:11:15.613Z,1.67
2023-11-07T13:13:43.289Z,1.57
2023-11-07T13:16:10.218Z,2.37
2023-11-07T13:18:40.071Z,2.13
2023-11-07T13:21:09.672Z,1.90
2023-11-07T13:23:37.797Z,1.50
2023-11-07T13:26:05.064Z,7.70
2023-11-07T13:28:31.759Z,4.87
2023-11-07T13:30:58.513Z,8.43
2023-11-07T13:33:25.346Z,1.70
2023-11-07T13:35:52.303Z,1.50
2023-11-07T13:38:19.092Z,1.90
2023-11-07T13:40:46.452Z,1.13
2023-11-07T13:43:13.420Z,1.30
2023-11-07T13:45:40.140Z,1.10
2023-11-07T13:48:07.470Z,2.00
2023-11-07T13:50:34.768Z,1.77
2023-11-07T13:53:01.669Z,0.63
2023-11-07T13:55:28.841Z,1.60
2023-11-07T13:57:55.927Z,1.00
2023-11-07T14:00:23.145Z,2.03
2023-11-07T14:02:50.850Z,0.93
2023-11-07T14:05:17.713Z,1.77
2023-11-07T14:07:44.869Z,1.60
2023-11-07T14:10:13.871Z,1.33
2023-11-07T14:12:41.435Z,2.07
2023-11-07T14:15:11.247Z,1.43
2023-11-07T14:17:41.196Z,1.13
2023-11-07T14:20:16.629Z,1.10
2023-11-07T14:22:44.923Z,1.70
2023-11-07T14:25:14.678Z,0.70
2023-11-07T14:27:41.966Z,2.20
2023-11-07T14:30:26.863Z,2.17
2023-11-07T14:32:56.512Z,0.53
2023-11-07T14:35:24.290Z,1.07
2023-11-07T14:37:51.398Z,1.00
2023-11-07T14:40:18.239Z,2.27
2023-11-07T14:42:46.324Z,2.70
2023-11-07T14:45:14.130Z,6.10
2023-11-07T14:47:44.314Z,2.03
2023-11-07T14:50:12.508Z,1.77
2023-11-07T14:52:40.873Z,1.23
2023-11-07T14:55:13.049Z,2.97
2023-11-07T14:57:43.733Z,1.07
2023-11-07T15:00:26.204Z,2.47
2023-11-07T15:02:54.223Z,1.67
2023-11-07T15:05:21.130Z,2.50
2023-11-07T15:07:47.848Z,3.10
2023-11-07T15:10:14.536Z,1.73
2023-11-07T15:12:41.589Z,2.13
2023-11-07T15:15:08.910Z,1.90
2023-11-07T15:17:35.729Z,1.50
2023-11-07T15:20:02.427Z,1.73
2023-11-07T15:22:29.133Z,1.43
2023-11-07T15:24:55.811Z,1.70
2023-11-07T15:27:24.064Z,1.53
2023-11-07T15:29:50.861Z,1.40
2023-11-07T15:32:17.616Z,1.70
2023-11-07T15:34:44.953Z,2.67
2023-11-07T15:37:12.615Z,1.37
2023-11-07T15:39:40.715Z,1.80
2023-11-07T15:42:08.737Z,1.43
2023-11-07T15:44:35.546Z,2.03
2023-11-07T15:47:03.849Z,1.73
2023-11-07T15:49:30.820Z,1.47
2023-11-07T15:51:57.638Z,2.00
2023-11-07T15:54:24.845Z,1.43
2023-11-07T15:56:51.541Z,2.30
2023-11-07T15:59:19.741Z,1.73
2023-11-07T16:01:47.402Z,1.50
2023-11-07T16:04:14.550Z,3.23
2023-11-07T16:06:41.525Z,1.83
2023-11-07T16:09:09.581Z,1.67
2023-11-07T16:11:36.265Z,2.63
2023-11-07T16:14:04.160Z,1.80
2023-11-07T16:16:32.180Z,3.20
2023-11-07T16:18:59.084Z,1.73
2023-11-07T16:21:25.937Z,2.53
2023-11-07T16:23:52.692Z,2.27
2023-11-07T16:26:19.399Z,2.57
2023-11-07T16:28:46.156Z,2.50
2023-11-07T16:31:12.879Z,3.50
2023-11-07T16:33:39.856Z,2.57
2023-11-07T16:36:06.723Z,3.47
2023-11-07T16:38:34.176Z,3.23
2023-11-07T16:41:00.996Z,3.63
2023-11-07T16:43:27.722Z,2.93
2023-11-07T16:45:54.467Z,2.20
2023-11-07T16:48:23.205Z,2.57
2023-11-07T16:50:49.945Z,1.93
2023-11-07T16:53:16.766Z,2.03
2023-11-07T16:55:43.493Z,2.63
2023-11-07T16:58:10.281Z,2.07
2023-11-07T17:00:37.895Z,2.13
2023-11-07T17:03:04.769Z,2.10
2023-11-07T17:05:33.542Z,2.40
2023-11-07T17:08:01.006Z,2.13
2023-11-07T17:10:27.687Z,1.93
2023-11-07T17:12:54.343Z,1.47
2023-11-07T17:15:21.163Z,1.83
2023-11-07T17:17:52.250Z,2.50
2023-11-07T17:20:20.510Z,2.53
2023-11-07T17:22:47.246Z,1.50
2023-11-07T17:25:14.435Z,1.60
2023-11-07T17:27:44.695Z,2.53
2023-11-07T17:30:12.640Z,2.97
2023-11-07T17:32:40.173Z,1.30
2023-11-07T17:35:07.508Z,1.57
2023-11-07T17:37:34.443Z,1.30
2023-11-07T17:40:01.286Z,1.43
2023-11-07T17:42:28.061Z,2.67
2023-11-07T17:44:54.868Z,1.40
2023-11-07T17:47:21.931Z,1.93
2023-11-07T17:49:48.757Z,1.30
2023-11-07T17:52:15.708Z,1.20
2023-11-07T17:54:42.393Z,2.70
2023-11-07T17:57:09.181Z,3.63
2023-11-07T17:59:35.966Z,2.57
2023-11-07T18:02:02.685Z,1.10
2023-11-07T18:04:29.490Z,2.43
2023-11-07T18:06:56.678Z,1.73
2023-11-07T18:09:23.676Z,1.60
2023-11-07T18:11:51.914Z,3.93
2023-11-07T18:14:21.413Z,1.40
2023-11-07T18:16:48.237Z,2.30
2023-11-07T18:19:15.193Z,2.50
2023-11-07T18:21:45.706Z,2.67
2023-11-07T18:24:12.707Z,3.40
2023-11-07T18:26:44.534Z,3.07
2023-11-07T18:29:11.378Z,2.03
2023-11-07T18:31:38.872Z,2.23
2023-11-07T18:34:16.570Z,1.57
2023-11-07T18:37:02.949Z,1.80
2023-11-07T18:39:30.738Z,2.83
2023-11-07T18:41:57.915Z,3.70
2023-11-07T18:44:24.900Z,2.37
2023-11-07T18:46:52.346Z,3.30
2023-11-07T18:49:20.085Z,35.00
2023-11-07T18:51:47.189Z,85.70
2023-11-07T18:54:15.945Z,64.87
2023-11-07T18:56:45.471Z,67.23
2023-11-07T18:59:13.769Z,15.43
2023-11-07T19:01:44.156Z,5.87
2023-11-07T19:04:10.999Z,3.30
2023-11-07T19:06:37.892Z,5.63
2023-11-07T19:09:05.197Z,2.07
2023-11-07T19:11:32.028Z,2.60
2023-11-07T19:14:01.362Z,2.90
2023-11-07T19:16:28.654Z,2.93
2023-11-07T19:18:55.856Z,2.83
2023-11-07T19:21:22.823Z,2.30
2023-11-07T19:23:51.506Z,3.20
2023-11-07T19:26:18.394Z,3.47
2023-11-07T19:28:45.146Z,4.60
2023-11-07T19:31:12.264Z,3.43
2023-11-07T19:33:39.144Z,2.53
2023-11-07T19:36:06.116Z,3.23
2023-11-07T19:38:34.461Z,3.53
2023-11-07T19:41:02.524Z,2.13
2023-11-07T19:43:38.364Z,2.60
2023-11-07T19:46:09.481Z,3.10
2023-11-07T19:48:36.904Z,2.70
2023-11-07T19:51:04.262Z,3.37
2023-11-07T19:53:33.336Z,3.10
2023-11-07T19:56:01.675Z,2.80
2023-11-07T19:58:29.005Z,3.27
2023-11-07T20:00:57.498Z,2.93
2023-11-07T20:03:30.458Z,4.37
2023-11-07T20:05:57.254Z,4.30
2023-11-07T20:08:29.792Z,2.87
2023-11-07T20:10:58.076Z,2.90
2023-11-07T20:13:25.057Z,4.27
2023-11-07T20:15:55.099Z,1.70
2023-11-07T20:18:21.901Z,3.43
2023-11-07T20:20:48.751Z,2.50
2023-11-07T20:23:15.846Z,2.70
2023-11-07T20:25:42.574Z,4.77
2023-11-07T20:28:09.233Z,3.47
2023-11-07T20:30:35.953Z,65.87
2023-11-07T20:33:08.617Z,14.00
2023-11-07T20:35:40.104Z,5.60
2023-11-07T20:38:08.636Z,7.83
2023-11-07T20:40:36.810Z,8.03
2023-11-07T20:43:09.086Z,5.33
2023-11-07T20:45:36.327Z,3.23
2023-11-07T20:48:03.220Z,2.60
2023-11-07T20:50:30.285Z,1.87
2023-11-07T20:52:59.896Z,3.50
2023-11-07T20:55:29.805Z,3.10
2023-11-07T20:58:02.207Z,4.97
2023-11-07T21:00:35.204Z,4.60
2023-11-07T21:03:02.201Z,3.60
2023-11-07T21:05:28.924Z,2.73
2023-11-07T21:07:55.621Z,2.27
2023-11-07T21:10:22.400Z,1.90
2023-11-07T21:12:49.283Z,1.60
2023-11-07T21:15:16.034Z,2.53
2023-11-07T21:17:43.938Z,2.17
2023-11-07T21:20:15.429Z,3.10
2023-11-07T21:22:42.231Z,2.83
2023-11-07T21:25:09.380Z,5.10
2023-11-07T21:27:36.281Z,2.70
2023-11-07T21:30:06.433Z,2.87
2023-11-07T21:32:34.127Z,1.50
2023-11-07T21:35:01.288Z,2.40
2023-11-07T21:37:28.450Z,2.40
2023-11-07T21:39:55.475Z,3.37
2023-11-07T21:42:22.320Z,1.30
2023-11-07T21:44:49.134Z,1.80
2023-11-07T21:47:16.401Z,2.93
2023-11-07T21:49:44.380Z,2.43
2023-11-07T21:52:11.938Z,2.77
2023-11-07T21:54:40.666Z,2.27
2023-11-07T21:57:07.640Z,2.20
2023-11-07T21:59:34.363Z,4.83
2023-11-07T22:02:01.074Z,1.97
2023-11-07T22:04:28.237Z,3.50
2023-11-07T22:06:55.175Z,1.73
2023-11-07T22:09:22.187Z,1.63
2023-11-07T22:11:48.882Z,4.17
2023-11-07T22:14:15.872Z,2.40
2023-11-07T22:16:43.108Z,2.50
2023-11-07T22:19:09.918Z,1.97
2023-11-07T22:21:36.876Z,3.20
2023-11-07T22:24:04.473Z,4.10
2023-11-07T22:26:31.312Z,2.70
2023-11-07T22:28:58.299Z,2.97
2023-11-07T22:31:25.041Z,2.43
2023-11-07T22:33:53.126Z,2.20
2023-11-07T22:36:20.305Z,2.63
2023-11-07T22:38:47.016Z,2.90
2023-11-07T22:41:15.065Z,3.23
2023-11-07T22:43:41.993Z,1.70
2023-11-07T22:46:08.760Z,2.03
2023-11-07T22:48:37.075Z,2.23
2023-11-07T22:51:04.725Z,2.73
2023-11-07T22:53:31.533Z,2.60
2023-11-07T22:56:00.600Z,3.03
2023-11-07T22:58:27.868Z,2.50
2023-11-07T23:00:56.859Z,3.43
2023-11-07T23:03:26.481Z,2.60
2023-11-07T23:05:53.589Z,2.23
2023-11-07T23:08:20.373Z,1.73
2023-11-07T23:10:47.815Z,3.33
2023-11-07T23:13:15.193Z,2.97
2023-11-07T23:15:42.018Z,3.10
2023-11-07T23:18:09.198Z,1.70
2023-11-07T23:20:36.641Z,1.67
2023-11-07T23:23:04.071Z,1.63
2023-11-07T23:25:30.799Z,2.10
2023-11-07T23:27:57.549Z,3.27
2023-11-07T23:30:24.472Z,1.93
2023-11-07T23:32:51.461Z,1.77
2023-11-07T23:35:18.457Z,2.90
2023-11-07T23:37:45.526Z,1.77
2023-11-07T23:40:12.792Z,1.90
2023-11-07T23:42:40.486Z,2.40
2023-11-07T23:45:08.479Z,1.47
2023-11-07T23:47:36.154Z,2.60
2023-11-07T23:50:03.378Z,3.07
2023-11-07T23:52:30.174Z,1.50
2023-11-07T23:54:56.914Z,3.13
2023-11-07T23:57:23.787Z,1.80
2023-11-07T23:59:51.015Z,4.53
